createdAt,value
2023-01-13T05:38:30.962Z,7.28
2023-01-13T05:39:31.944Z,7.28
2023-01-13T05:40:31.986Z,7.29
2023-01-13T05:41:31.909Z,7.31
2023-01-13T05:42:31.909Z,7.36
2023-01-13T05:43:31.930Z,7.31
2023-01-13T05:44:31.870Z,7.32
2023-01-13T05:45:31.870Z,7.31
2023-01-13T05:46:31.856Z,7.32
2023-01-13T05:47:31.848Z,7.33
2023-01-13T05:48:31.835Z,7.33
2023-01-13T06:13:02.667Z,7.41
2023-01-13T06:14:03.631Z,7.43
2023-01-13T06:15:03.613Z,7.43
2023-01-13T06:16:03.640Z,7.44
2023-01-13T06:17:03.580Z,7.44
2023-01-13T09:06:02.190Z,7.40
2023-01-13T09:07:03.367Z,7.43
2023-01-13T11:48:28.015Z,8.11
2023-01-13T11:49:28.983Z,8.16
2023-01-13T11:50:28.964Z,8.17
2023-01-13T11:51:28.971Z,8.17
2023-01-13T11:52:28.941Z,8.18
2023-01-13T14:41:42.543Z,7.87
2023-01-13T14:42:43.519Z,7.80
2023-01-13T14:43:43.488Z,7.81
2023-01-13T14:44:43.493Z,7.81
2023-01-13T14:54:07.647Z,7.70
2023-01-13T14:55:08.609Z,7.69
2023-01-13T14:56:08.633Z,7.70
2023-01-13T15:03:08.718Z,7.46
2023-01-13T15:04:09.623Z,7.53
2023-01-13T15:05:09.646Z,7.59
2023-01-13T15:06:09.593Z,7.59
2023-01-13T15:07:09.594Z,7.64
2023-01-13T15:08:09.598Z,7.66
2023-01-13T15:43:26.445Z,7.93
2023-01-13T15:44:27.425Z,7.90
2023-01-13T15:45:27.413Z,7.87
2023-01-13T15:46:27.467Z,7.88
2023-01-13T15:47:28.078Z,7.85
2023-01-13T15:48:27.380Z,7.81
2023-01-13T16:06:57.197Z,7.80
2023-01-13T16:07:58.166Z,7.77
2023-01-13T16:08:58.159Z,7.78
2023-01-13T16:09:58.157Z,7.77
2023-01-13T16:10:58.179Z,7.77
2023-01-13T16:11:58.164Z,7.78
2023-01-13T16:12:58.113Z,7.75
2023-01-13T16:13:58.115Z,7.72
2023-01-13T16:14:58.084Z,7.67
2023-01-13T16:15:58.106Z,7.66
2023-01-13T16:16:58.134Z,7.58
2023-01-13T16:17:58.104Z,7.51
2023-01-13T16:18:58.141Z,7.43
2023-01-13T16:19:58.113Z,7.41
2023-01-13T16:20:58.027Z,7.39
2023-01-13T16:21:58.033Z,7.36
2023-01-13T16:22:58.007Z,7.36
2023-01-13T16:23:58.014Z,7.33
2023-01-13T16:24:58.011Z,7.33
2023-01-13T16:25:58.023Z,7.31
2023-01-13T16:26:58.217Z,7.26
2023-01-13T16:27:58.011Z,7.25
2023-01-13T16:28:58.022Z,7.26
2023-01-13T16:29:57.995Z,7.26
2023-01-13T16:30:57.939Z,7.26
2023-01-13T16:31:57.943Z,7.21
2023-01-13T16:32:57.916Z,7.15
2023-01-13T16:33:57.959Z,7.07
2023-01-13T16:34:59.741Z,7.07
2023-01-13T16:36:11.865Z,7.04
2023-01-13T16:36:57.926Z,6.96
2023-01-13T16:40:31.309Z,6.92
2023-01-13T16:41:31.950Z,6.90
2023-01-13T16:42:31.835Z,6.90
2023-01-13T18:06:11.619Z,7.75
2023-01-13T18:41:52.406Z,7.84
2023-01-13T20:16:09.444Z,7.88
2023-01-13T20:17:27.433Z,7.93
2023-01-13T20:24:50.189Z,7.84
2023-01-13T21:20:54.300Z,7.90
2023-01-13T21:21:55.309Z,8.03
2023-01-13T21:22:55.266Z,8.05
2023-01-13T21:23:55.235Z,8.08
2023-01-13T21:24:55.229Z,8.06
2023-01-13T23:05:49.011Z,7.99
2023-01-13T23:06:49.965Z,8.02
2023-01-13T23:07:49.954Z,8.02
2023-01-13T23:08:49.959Z,8.03
2023-01-13T23:09:49.932Z,8.03
2023-01-13T23:10:49.907Z,8.06
2023-01-13T23:11:49.959Z,8.08
2023-01-13T23:12:49.880Z,8.08
2023-01-13T23:13:49.917Z,8.11
2023-01-13T23:14:49.877Z,8.08
2023-01-13T23:15:49.856Z,8.08
2023-01-13T23:16:49.856Z,8.08
2023-01-13T23:17:49.839Z,8.06
2023-01-13T23:18:49.845Z,8.05
2023-01-13T23:19:49.815Z,8.06
2023-01-13T23:20:49.808Z,8.11
2023-01-13T23:21:49.800Z,8.13
2023-01-13T23:22:49.809Z,8.16
2023-01-13T23:23:49.781Z,8.16
2023-01-13T23:24:49.747Z,8.17
2023-01-13T23:25:49.752Z,8.17
2023-01-13T23:26:49.727Z,8.11
2023-01-13T23:27:49.767Z,8.05
2023-01-13T23:28:49.747Z,8.06
2023-01-13T23:29:49.707Z,8.05
2023-01-13T23:30:49.719Z,8.02
2023-01-13T23:31:49.688Z,8.02
2023-01-13T23:32:49.658Z,7.99
2023-01-13T23:33:49.660Z,7.98
2023-01-13T23:34:49.669Z,7.95
2023-01-13T23:35:49.637Z,7.98
2023-01-13T23:36:49.652Z,7.95
2023-01-13T23:37:49.660Z,7.93
2023-01-13T23:38:49.597Z,7.91
2023-01-13T23:39:49.860Z,7.90
2023-01-13T23:40:49.570Z,7.93
2023-01-13T23:41:49.607Z,7.98
2023-01-13T23:42:49.582Z,8.01
